Главная страница
METAR-TAF:

METAR-TAF

Аэропорты :

Каракас, Венесуэла

широта: 10-36N, долгота: 066-59W, высота над уровнем моря: 43 м

Текущие метеонаблюдения

Эта сводка был подготовлена 1 час и 4 минут назад, в 03:00 UTC
Штиль
Температура 25°C
Влажность 89%
Давление 1012 hPa
Видимость 10 км и более
Рассеянная облачность на высоте 1600 фута

METAR: SVMI 200300Z 00000KT 9999 BKN016 25/23 Q1012

Время: 00:04 (04:04 UTC)

Прогноз

Эта сводка был подготовлена 6 часа и 4 минут назад, в 22:00 UTC
Прогноз действительный с 20-го 00 UTC до 21-го 00 UTC
Ветер 3 Узел от восточно-северо-восточный
Видимость: 9000 м
небольшая облачность на высоте 1600 фута
Отдельные облака на высоте 7000 фута
Отдельные облака на высоте 1600 фута
Морось

TAF: SVMI 192200Z 2000/2100 09004KT 9999 FEW016 SCT070 TX32/17Z TN24/10ZBECMG 2001/2005 07003KT 9000 DZ SCT016

Метеонаблюдения и прогнозы для более 4000 аэропортов (сводки METAR и TAF).

Имеющиеся станции представлены на карте желтыми и красными точками.

Чтобы увидеть название станции, наведите на нее мышь.

Затем щелкните, чтобы увидеть метеонаблюдения и метеопрогнозы.

Управление картой: чтобы увеличить масштаб, щелкните зеленые кнопки с черным крестиком; чтобы уменьшить масштаб, щелкните зеленую кнопку с тире; для просмотра соседних карт щелкайте зеленые стрелки.


METAR-TAF: